Relevés horaires Bierset (Belgique)


Relevés horaires à Bierset - Lundi 09 Nov. 2020
Heure UTC1 Température [°C] Vent [km/h] Hum. [%] Pres.4 [hPa] Visi. [Km] Nébu. [octa] Préc.5 [mm] Cond.
2m. Res. Ros. Dir.2 Vit. Moy. Raf.3
23:00 13.2 13.2 10.5 SSE 5.6 5.6 13.0 84 1023.8(0.4/3h) 21 6/8 -- --
22:00 13.2 13.2 10.6 SSE 3.7 5.6 13.0 84 1023.7(0.5/3h) 21 6/8 -- --
21:00 13.5 13.5 10.6 SSE 3.7 5.6 11.1 83 1023.6(0.4/3h) 30 6/8 -- --
20:00 14.1 14.1 10.4 SSE 3.7 5.6 9.3 78 1023.3(0.5/3h) 30 6/8 -- --
19:00 14.2 14.2 10.0 SE 3.7 5.6 7.4 76 1023.2(0.7/3h) 30 6/8 -- --
18:00 14.8 14.8 10.0 SE 3.7 3.7 13.0 73 1023.1(0.6/3h) 30 7/8 0/12h
--
17:00 15.4 15.4 10.1 SE 3.7 3.7 13.0 71 1022.7(0.6/3h) 30 7/8 -- --
16:00 15.9 15.9 10.3 E 3.7 3.7 5.6 69 1022.3(0.2/3h) 30 7/8 -- --
15:00 16.3 16.3 10.5 E 3.7 3.7 13.0 69 1022.3(-0.1/3h) 30 7/8 -- --
14:00 16.9 16.9 10.7 ESE 1.9 1.9 7.4 67 1022(-0.8/3h) 30 7/8 -- --
13:00 16.9 16.9 10.8 ESE 1.9 3.7 13.0 67 1022.1(-0.9/3h) 30 7/8 -- --
12:00 15.7 15.7 10.3 SE 3.7 7.4 14.8 70 1022.4(-0.7/3h) 30 7/8 0/6h
--
11:00 14.8 14.8 9.8 SE 5.6 5.6 13.0 72 1023(0.2/3h) 30 6/8 -- --
10:00 13.9 13.9 9.7 SSE 5.6 5.6 9.3 76 1023.2(0.9/3h) 30 5/8 -- --
09:00 13.9 13.9 10.1 SSE 3.7 7.4 14.8 78 1023.3(1.4/3h) 30 6/8 -- --
08:00 13.0 13.0 9.4 S 3.7 5.6 11.1 79 1022.9(0.7/3h) 30 6/8 -- --
07:00 12.2 12.2 9.4 SE 3.7 5.6 14.8 83 1022.4(0.3/3h) 30 6/8 -- --
06:00 13.2 12.9 9.3 S 7.4 7.4 18.5 77 1021.9(-0.2/3h) 30 6/8 0/12h
--
05:00 12.0 11.9 9.4 SE 5.6 7.4 13.0 84 1022.3(-0.4/3h) 30 6/8 -- --
04:00 11.9 11.4 9.2 SE 7.4 7.4 14.8 84 1022.2(-0.7/3h) 30 6/8 -- --
03:00 11.8 11.6 9.4 SE 5.6 7.4 18.5 85 1022.3(-0.8/3h) 30 3/8 -- --
02:00 12.3 12.2 9.5 SE 5.6 5.6 11.1 83 1022.7(-0.4/3h) 30 5/8 -- --
01:00 12.2 12.2 9.3 NNO 3.7 5.6 13.0 82 1022.9(0.2/3h) 30 5/8 -- --

1 Coordinated Universal Time. Actuellement il est 16:00 locale et 15:00 UTC.

2 Le vent souffle depuis la direction indiquée vers la direction oposée.

3 Les rafales max. sont disponible 40 min après l'heure du relevé.

4 Pour les stations d'altitude (plus de 600m) le géopotentiel du niveau le plus proche de la pression obligatoire est indiqué.

5 Les stations disposant d'un diffuseur peuvent indiquer "trace". Cela signifie que des précipitations ont touchés le sol mais que la quantité est inférieure à 0.1 mm.

Récapitulatif de la journée
Température [°C] Vent [km/h] Ensoleillement4 [h] Precipitations totale5 [mm] Pression [Hpa]
Min1 Max.2 Moy.3 Max. Min Max.
11.6 17.1 5.5 18.5 0 h 0 min 0 1021.9 1023.8

1 Température minimale relevée entre 18:00 UTC la veille et 18:00 UTC le jour donné.

2 Température maximale relevée entre 06:00 UTC le jour donné et 06:00 UTC le lendemain.

3 Vent moyen de la journée basé sur les relevés horaires.

4 Ensoleillement en heures relevé entre 06:00 UTC la veille et 06:00 UTC le jour donné.

5 Précipitations totales tombées entre 06:00 UTC la jour donné et 06:00 UTC le lendemain.

Graphiques horaires